Hudson, New Hampshire
Current Conditions -  °F | °C
As of 11:10 PM on Wednesday 26 Nov 2014 (Local Time) from KASH Reporting Station
Haze Haze  
Wind Chill: 29°   Ceiling: 900
Heat Index: 34°   Visibility: 1.5mi
Dew Point: 32°   Wind: 6mph
Humidity: 93%   Direction: 340°NNW
Pressure: 29.77"   Gusts: NA
Location:  42.76°N, 71.44°W
Report Text: KASH 270410Z 34005KT 1 1/2SM UP BR BKN009 BKN013 01/00 A2977 RMK AO2 CIG 006V011 UPB04FZRAE0354SNB0354E04 P0000 $
Loading
Personal Weather Stations






























Interactive Weather Map New forecast layout! Learn more

10-Day Weather Forecast

Advertisements
Track Severe Weather on mobile